This is the latest recevied weather packets stored in our database for station/object K6CED. If no packets are shown the sender has not sent any weather packets the latest 10 day(s).
| Time | Temp. | Humidity | Pressure | Rain* | Wind** | Luminosity | Snow |
|---|---|---|---|---|---|---|---|
| 1778092807 | 20° C | 50% | 1020.2 hPa | 0 mm | - | 894 W/m² | - |
| 1778092502 | 19.44° C | 51% | 1020.1 hPa | 0 mm | - | 890 W/m² | - |
| 1778092199 | 20° C | 50% | 1020.2 hPa | 0 mm | - | 884 W/m² | - |
| 1778091896 | 20° C | 51% | 1020.3 hPa | 0 mm | - | 877 W/m² | - |
| 1778091593 | 18.89° C | 53% | 1020.4 hPa | 0 mm | - | 872 W/m² | - |
| 1778091292 | 19.44° C | 52% | 1020.5 hPa | 0 mm | - | 864 W/m² | - |
| 1778090988 | 19.44° C | 52% | 1020.4 hPa | 0 mm | - | 858 W/m² | - |
| 1778090684 | 18.89° C | 53% | 1020.3 hPa | 0 mm | - | 848 W/m² | - |
| 1778090381 | 19.44° C | 52% | 1020.6 hPa | 0 mm | - | 841 W/m² | - |
| 1778090078 | 18.33° C | 54% | 1020.7 hPa | 0 mm | - | 832 W/m² | - |
| 1778089775 | 18.33° C | 55% | 1020.6 hPa | 0 mm | - | 824 W/m² | - |
| 1778089472 | 18.33° C | 54% | 1020.6 hPa | 0 mm | - | 814 W/m² | - |
| 1778089164 | 17.78° C | 57% | 1020.5 hPa | 0 mm | - | 803 W/m² | - |
| 1778088860 | 17.78° C | 56% | 1020.6 hPa | 0 mm | - | 794 W/m² | - |
| 1778088558 | 18.33° C | 56% | 1020.7 hPa | 0 mm | - | 783 W/m² | - |
| 1778088255 | 17.78° C | 57% | 1020.9 hPa | 0 mm | - | 773 W/m² | - |
| 1778087951 | 17.78° C | 57% | 1020.8 hPa | 0 mm | - | 763 W/m² | - |
| 1778087648 | 18.89° C | 55% | 1020.7 hPa | 0 mm | - | 747 W/m² | - |
| 1778087346 | 17.78° C | 57% | 1020.7 hPa | 0 mm | - | 734 W/m² | - |
| 1778087041 | 16.67° C | 59% | 1020.9 hPa | 0 mm | - | 721 W/m² | - |
| 1778086735 | 16.67° C | 63% | 1020.7 hPa | 0 mm | - | 709 W/m² | - |
| 1778086433 | 17.22° C | 62% | 1020.7 hPa | 0 mm | - | 696 W/m² | - |
| 1778086129 | 17.22° C | 62% | 1020.7 hPa | 0 mm | - | 683 W/m² | - |
| 1778085825 | 17.78° C | 61% | 1020.8 hPa | 0 mm | - | 392 W/m² | - |
| 1778085523 | 16.67° C | 63% | 1020.7 hPa | 0 mm | - | 652 W/m² | - |
* Rain latest hour (hover to see other rain measurements)
** Current wind speed in m/s (hover to see current wind gust speed)